Tiempo atmosférico en la estación meteorológica de Torrelavega, Sierrapando, Cantabria (100 m.)



Fecha
DESCASC
Temp. máxima en grados centígrados (hora)
DESCASC
Temp. mínima en grados centígrados (hora)
DESCASC
Temp. media en grados centígrados
DESCASC
Racha de viento máxima en m/sg (hora)
DESCASC
Velocidad máxima media en intervalos de 10 minutos(hora)
DESCASC
Precipitaciones diarias en mm
DESCASC
Precipitaciones de 00:00 a 06:00 en mm
DESCASC
Precipitaciones de 06:00 a 12:00 en mm
DESCASC
Precipitaciones de 12:00 a 18:00 en mm
DESCASC
Precipitaciones de 18:00 a 24:00 en mm
DESCASC
03-12-2020 14.5 (14:10) 7.3 (07:30) 10.9 25.56 (21:40) 14.44 (21:40) 8.2 0 0 0 8.2
02-12-2020 11.6 (13:20) 7 (07:50) 9.3 8.06 (15:50) 5.56 (12:40) 0.4 0.2 0.2 0 0
01-12-2020 13.2 (13:30) 5.8 (08:20) 9.5 10 (21:00) 5.83 (21:00) 5.4 0 0 0 5.4
30-11-2020 14.2 (13:50) 7.5 (00:00) 10.8 5.83 (17:00) 4.17 (16:50) 0 0 0 0 0
29-11-2020 19.8 (13:50) 9.8 (00:00) 14.8 8.89 (06:00) 6.11 (06:00) 0 0 0 0 0
28-11-2020 18 (15:10) 10.2 (00:00) 14.1 10 (22:10) 7.22 (18:20) 0 0 0 0 0
27-11-2020 17.9 (14:20) 13.2 (00:00) 15.5 12.5 (05:50) 7.78 (05:50) 0 0 0 0 0
26-11-2020 17.1 (13:00) 12 (00:00) 14.6 11.94 (15:40) 8.06 (15:40) 0 0 0 0 0
25-11-2020 18.6 (13:40) 11.3 (00:00) 15 9.17 (23:50) 5.83 (07:20) 0 0 0 0 0
24-11-2020 16.5 (13:50) 6.6 (00:00) 11.5 7.22 (22:40) 5 (00:10) 0 0 0 0 0
23-11-2020 16.3 (14:40) 5.8 (00:00) 11 6.39 (23:59) 5.28 (23:59) 0 0 0 0 0
22-11-2020 15.6 (14:10) 4.2 (00:00) 9.9 5.56 (05:40) 4.44 (06:50) 0 0 0 0 0
21-11-2020 14 (14:20) 4.6 (00:00) 9.3 6.94 (15:50) 5 (04:10) 0 0 0 0 0
20-11-2020 14.6 (13:10) 7.5 (00:00) 11.1 7.22 (16:00) 5.56 (16:10) 0 0 0 0 0
19-11-2020 15.6 (03:00) 10.4 (00:00) 13 7.5 (07:30) 5.56 (07:30) 5.4 1.2 3.8 0.4 0
18-11-2020 23.2 (12:40) 12.9 (00:00) 18.1 6.67 (15:20) 5 (14:10) 0 0 0 0 0
17-11-2020 19.4 (14:40) 7.6 (00:00) 13.5 5.56 (03:50) 3.89 (03:00) 0 0 0 0 0
16-11-2020 16.7 (13:20) 9.7 (00:00) 13.2 5.28 (14:40) 3.89 (14:40) 2 1.8 0.2 0 0
15-11-2020 21.8 (11:20) 12.4 (00:00) 17.1 11.94 (15:00) 7.5 (15:00) 4.8 0 0 2.2 2.6
14-11-2020 23.1 (13:10) 11.4 (00:00) 17.3 9.72 (16:40) 6.11 (15:20) 0 0 0 0 0
13-11-2020 20.6 (14:20) 11.8 (00:00) 16.2 10 (11:50) 6.67 (11:50) 0 0 0 0 0
12-11-2020 18.8 (13:20) 14.2 (00:00) 16.5 6.11 (20:00) 5 (19:40) 0 0 0 0 0
11-11-2020 19.9 (13:50) 9.6 (00:00) 14.8 5 (19:30) 3.61 (05:40) 0 0 0 0 0
10-11-2020 18.2 (13:20) 11 (00:00) 14.6 6.94 (15:30) 5.28 (15:20) 0 0 0 0 0
09-11-2020 21.9 (13:30) 11.8 (00:00) 16.8 11.67 (01:20) 7.5 (01:10) 0.2 0 0 0 0.2
08-11-2020 19.8 (11:40) 16.6 (00:00) 18.2 14.17 (16:10) 9.17 (16:20) 0 0 0 0 0
07-11-2020 19.9 (03:00) 14.4 (00:00) 17.1 14.44 (01:10) 9.44 (05:30) 0 0 0 0 0
06-11-2020 23.1 (14:00) 14.8 (00:00) 19 24.72 (22:50) 14.72 (22:50) 0 0 0 0 0
05-11-2020 15.7 (13:40) 6.9 (00:00) 11.3 9.17 (15:50) 6.67 (15:50) 0 0 0 0 0

Gráficas

Temp. máximas Temp. mínimas Temp. medias Precipitaciones Rachas de viento máximas Velocidades máximas media en intervalos de 10 minutos

Datos horarios

Fecha y hora oficial Temperatura (ºC) Velocidad del viento (km/h) Dirección del viento Racha (km/h) Dirección de racha Precipitación (mm) Presión (hPa) Tendencia (hPa) Humedad (%)
2020-12-04 23:00:00 4.3 15 Sudoeste 27 Oeste 0 -- -- 89
2020-12-04 22:00:00 3.6 18 Oeste 46 Oeste 1.2 -- -- 92
2020-12-04 21:00:00 4.3 14 Noroeste 61 Oeste 2.4 -- -- 91
2020-12-04 20:00:00 5.1 15 Oeste 30 Oeste 0.2 -- -- 88
2020-12-04 19:00:00 5 7 Sudoeste 18 Oeste 0.4 -- -- 90
2020-12-04 18:00:00 5.1 15 Noroeste 50 Noroeste 1.6 -- -- 91
2020-12-04 17:00:00 7 13 Oeste 21 Noroeste 0.2 -- -- 81
2020-12-04 16:00:00 6.9 15 Sudoeste 25 Sudoeste 0.4 -- -- 87
2020-12-04 15:00:00 4.7 13 Sudoeste 39 Oeste 4.8 -- -- 92
2020-12-04 14:00:00 4.9 22 Oeste 35 Oeste 5.4 -- -- 89
2020-12-04 13:00:00 5.8 11 Oeste 34 Sudoeste 0.8 -- -- 85
2020-12-04 12:00:00 4.3 24 Oeste 64 Oeste 2.4 -- -- 88
2020-12-04 11:00:00 6.8 32 Noroeste 51 Noroeste 0.4 -- -- 75
2020-12-04 10:00:00 7.1 16 Sudoeste 23 Oeste 0.2 -- -- 72
2020-12-04 09:00:00 5.7 17 Oeste 29 Oeste 0.2 -- -- 74
2020-12-04 08:00:00 5 13 Sudoeste 36 Oeste 0.4 -- -- 79
2020-12-04 07:00:00 4.6 14 Sudoeste 63 Oeste 0.6 -- -- 85
2020-12-04 06:00:00 5.9 18 Noroeste 43 Oeste 0.4 -- -- 79
2020-12-04 05:00:00 5.3 20 Oeste 71 Oeste 0.4 -- -- 85
2020-12-04 04:00:00 5.5 40 Oeste 78 Oeste 1 -- -- 89
2020-12-04 03:00:00 5.7 23 Oeste 54 Oeste 0.8 -- -- 88
2020-12-04 02:00:00 5.9 29 Oeste 67 Noroeste 3.4 -- -- 90
2020-12-04 01:00:00 7 32 Oeste 61 Oeste 0.6 -- -- 87
2020-12-04 00:00:00 7.9 29 Oeste 66 Oeste 1 -- -- 83
2020-12-03 23:00:00 7.9 30 Oeste 84 Noroeste 4.2 -- -- 91
2020-12-03 22:00:00 9.2 46 Noroeste 92 Oeste 2.8 -- -- 90
2020-12-03 21:00:00 11 12 Oeste 20 Noroeste 0.2 -- -- 69
2020-12-03 20:00:00 11.1 13 Sudoeste 23 Sur 0 -- -- 62
2020-12-03 19:00:00 10.4 6 Sudoeste 21 Sur 0 -- -- 63
2020-12-03 18:00:00 10.8 13 Sudeste 18 Sudeste 0 -- -- 61
2020-12-03 17:00:00 11.2 11 Sudeste 15 Sudeste 0 -- -- 62
2020-12-03 16:00:00 13 7 Sur 15 Sur 0 -- -- 59
2020-12-03 15:00:00 13.8 12 Sudoeste 21 Sudoeste 0 -- -- 54
2020-12-03 14:00:00 14.2 13 Sudoeste 25 Sudoeste 0 -- -- 56
2020-12-03 13:00:00 12.7 21 Sudoeste 33 Sudoeste 0 -- -- 58
2020-12-03 12:00:00 12.2 16 Sudoeste 25 Sudoeste 0 -- -- 61
2020-12-03 11:00:00 9.9 7 Sur 14 Sudoeste 0 -- -- 72
2020-12-03 10:00:00 8.4 13 Sudoeste 17 Sudoeste 0 -- -- 73
2020-12-03 09:00:00 7.9 5 Sur 19 Sudoeste 0 -- -- 76
2020-12-03 08:00:00 7.3 15 Sudoeste 20 Sudoeste 0 -- -- 81
2020-12-03 07:00:00 7.7 9 Noroeste 14 Noroeste 0 -- -- 79
2020-12-03 06:00:00 8.3 7 Sur 17 Sudeste 0 -- -- 78
2020-12-03 05:00:00 9.3 2 Sur 13 Sur 0 -- -- 74
2020-12-03 04:00:00 9.2 10 Sudoeste 16 Sudoeste 0 -- -- 76
2020-12-03 03:00:00 9 11 Sudoeste 15 Sudoeste 0 -- -- 77
2020-12-03 02:00:00 8.5 9 Sur 13 Sudoeste 0 -- -- 79
2020-12-03 01:00:00 8.2 9 Sur 12 Sur 0 -- -- 81
2020-12-03 00:00:00 8.4 9 Sur 14 Sudoeste 0 -- -- 80
2020-12-02 23:00:00 8.4 12 Sudoeste 18 Sudoeste 0 -- -- 80
2020-12-02 22:00:00 8 12 Sudoeste 16 Sudoeste 0 -- -- 83
2020-12-02 21:00:00 7.5 13 Sudoeste 16 Sudoeste 0 -- -- 85
2020-12-02 20:00:00 7.6 11 Sudoeste 13 Sudoeste 0 -- -- 82
2020-12-02 19:00:00 8.2 10 Sudoeste 13 Sudoeste 0 -- -- 84
2020-12-02 18:00:00 9.1 5 Sudoeste 16 Norte 0 -- -- 77
2020-12-02 17:00:00 10.2 8 Norte 18 Norte 0 -- -- 74
2020-12-02 16:00:00 9.9 9 Noroeste 29 Noroeste 0 -- -- 76
2020-12-02 15:00:00 11.1 18 Norte 24 Norte 0 -- -- 67
2020-12-02 14:00:00 10.8 14 Norte 28 Nordeste 0 -- -- 70
2020-12-02 13:00:00 11.4 18 Norte 27 Norte 0 -- -- 63
2020-12-02 12:00:00 10.6 17 Norte 27 Norte 0 -- -- 67
2020-12-02 11:00:00 9.8 5 Oeste 13 Noroeste 0.2 -- -- 84
2020-12-02 10:00:00 7.9 6 Oeste 12 Sudoeste 0 -- -- 88
2020-12-02 09:00:00 7.2 9 Sudoeste 12 Sudoeste 0 -- -- 90
2020-12-02 08:00:00 7 10 Sudoeste 13 Sudoeste 0 -- -- 90
2020-12-02 07:00:00 7.6 8 Oeste 9 Oeste 0 -- -- 87
2020-12-02 06:00:00 8 7 Sudoeste 9 Sudoeste 0 -- -- 88
2020-12-02 05:00:00 9.1 5 Nordeste 14 Nordeste 0 -- -- 78
2020-12-02 04:00:00 9.4 11 Nordeste 21 Nordeste 0 -- -- 81
2020-12-02 03:00:00 9.6 16 Nordeste 22 Nordeste 0 -- -- 85
2020-12-02 02:00:00 10.1 7 Nordeste 12 Nordeste 0 -- -- 94
2020-12-02 01:00:00 10.3 6 Sudoeste 15 Norte 0.2 -- -- 97
2020-12-02 00:00:00 10.3 10 Norte 21 Norte 0.4 -- -- 97
2020-12-01 23:00:00 10.7 14 Noroeste 33 Noroeste 2.2 -- -- 97
2020-12-01 22:00:00 10.2 19 Noroeste 32 Noroeste 1.4 -- -- 96
2020-12-01 21:00:00 10.9 21 Noroeste 36 Noroeste 1.4 -- -- 93
2020-12-01 20:00:00 11.8 11 Oeste 18 Oeste 0 -- -- 87
2020-12-01 19:00:00 11.8 11 Oeste 20 Oeste 0 -- -- 88
2020-12-01 18:00:00 11.9 13 Oeste 19 Oeste 0 -- -- 87
2020-12-01 17:00:00 12.2 12 Oeste 23 Oeste 0 -- -- 87
2020-12-01 16:00:00 12.5 13 Noroeste 21 Oeste 0 -- -- 85
2020-12-01 15:00:00 12.7 10 Noroeste 19 Norte 0 -- -- 82
2020-12-01 14:00:00 12.9 4 Noroeste 9 Noroeste 0 -- -- 76
2020-12-01 13:00:00 12.2 7 Sudoeste 13 Sudoeste 0 -- -- 72
2020-12-01 12:00:00 10.5 8 Sudoeste 12 Sudoeste 0 -- -- 75
2020-12-01 11:00:00 9.1 0 Calma 10 Sudoeste 0 -- -- 81
2020-12-01 10:00:00 6.8 6 Sur 15 Sudeste 0 -- -- 90
2020-12-01 09:00:00 5.9 10 Sur 15 Sudeste 0 -- -- 92
2020-12-01 08:00:00 5.9 8 Sur 17 Sudeste 0 -- -- 93
2020-12-01 07:00:00 6.5 9 Sur 13 Sudeste 0 -- -- 94
2020-12-01 06:00:00 6.9 6 Sur 13 Sur 0 -- -- 94
2020-12-01 05:00:00 7.6 9 Sur 17 Sudeste 0 -- -- 94
2020-12-01 04:00:00 8.6 6 Sur 10 Sur 0 -- -- 95
2020-12-01 03:00:00 9.2 8 Sur 12 Sur 0 -- -- 96
2020-12-01 02:00:00 9.4 5 Sur 11 Sudoeste 0 -- -- 96
2020-12-01 01:00:00 9.4 9 Sudoeste 10 Sudoeste 0 -- -- 95
2020-12-01 00:00:00 10 3 Nordeste 10 Sudeste 0 -- -- 94
2020-11-30 23:00:00 10.8 6 Sudeste 13 Este 0 -- -- 92
2020-11-30 22:00:00 11.1 8 Nordeste 14 Nordeste 0 -- -- 93
2020-11-30 21:00:00 11.3 6 Nordeste 10 Sudoeste 0 -- -- 90
2020-11-30 20:00:00 11.9 5 Sudoeste 9 Sudoeste 0 -- -- 90
2020-11-30 19:00:00 12 4 Nordeste 17 Este 0 -- -- 90
2020-11-30 18:00:00 12.1 12 Este 17 Este 0 -- -- 90
2020-11-30 17:00:00 12.6 15 Este 21 Este 0 -- -- 89
2020-11-30 16:00:00 13.5 11 Nordeste 15 Nordeste 0 -- -- 84
2020-11-30 15:00:00 13.6 7 Nordeste 12 Nordeste 0 -- -- 85
2020-11-30 14:00:00 13.8 9 Nordeste 12 Nordeste 0 -- -- 80
2020-11-30 13:00:00 13 5 Sudeste 11 Sur 0 -- -- 76
2020-11-30 12:00:00 11.9 8 Sur 14 Sudeste 0 -- -- 77
2020-11-30 11:00:00 10.1 9 Sur 14 Sudeste 0 -- -- 82
2020-11-30 10:00:00 8.9 11 Sur 15 Sur 0 -- -- 87
2020-11-30 09:00:00 8.2 10 Sudoeste 15 Sudoeste 0 -- -- 88
2020-11-30 08:00:00 8.1 9 Sur 18 Sudoeste 0 -- -- 88
2020-11-30 07:00:00 7.5 13 Sudoeste 17 Sudoeste 0 -- -- 88
2020-11-30 06:00:00 7.8 8 Sur 13 Sur 0 -- -- 87
2020-11-30 05:00:00 8.2 9 Sur 14 Sur 0 -- -- 88
2020-11-30 04:00:00 7.8 8 Sur 17 Oeste 0 -- -- 91
2020-11-30 03:00:00 8.4 8 Sudoeste 12 Sudoeste 0 -- -- 88
2020-11-30 02:00:00 8.8 4 Sudoeste 18 Sudoeste 0 -- -- 86
2020-11-30 01:00:00 9.7 8 Sur 10 Sudeste 0 -- -- 82
2020-11-30 00:00:00 9.8 5 Sur 8 Sudoeste 0 -- -- 85
2020-11-29 23:00:00 10.4 6 Sur 9 Sudeste 0 -- -- 83
2020-11-29 22:00:00 10.7 7 Sur 14 Sudoeste 0 -- -- 86
2020-11-29 21:00:00 11 13 Sudoeste 14 Sudoeste 0 -- -- 86
2020-11-29 20:00:00 12 9 Sudoeste 11 Sudoeste 0 -- -- 85
2020-11-29 19:00:00 13 7 Norte 8 Noroeste 0 -- -- 87
2020-11-29 18:00:00 14.6 4 Noroeste 9 Nordeste 0 -- -- 78
2020-11-29 17:00:00 16.4 4 Nordeste 13 Nordeste 0 -- -- 60
2020-11-29 16:00:00 17.4 6 Nordeste 17 Este 0 -- -- 58
2020-11-29 15:00:00 17.9 11 Nordeste 15 Nordeste 0 -- -- 60
2020-11-29 14:00:00 19.8 8 Sudeste 14 Sudeste 0 -- -- 50
2020-11-29 13:00:00 18.3 8 Sudeste 19 Sudeste 0 -- -- 53
2020-11-29 12:00:00 17.8 13 Sudeste 20 Sudeste 0 -- -- 54
2020-11-29 11:00:00 16.7 6 Sudeste 19 Sudeste 0 -- -- 60
2020-11-29 10:00:00 15.4 11 Sur 27 Sur 0 -- -- 59
2020-11-29 09:00:00 14.7 15 Sur 27 Sudeste 0 -- -- 57
2020-11-29 08:00:00 13 8 Sudeste 15 Sudeste 0 -- -- 63
2020-11-29 07:00:00 12.9 3 Sudeste 32 Sur 0 -- -- 63
2020-11-29 06:00:00 13.3 22 Sur 32 Sudeste 0 -- -- 63
2020-11-29 05:00:00 12.8 19 Sudeste 24 Sudeste 0 -- -- 64
2020-11-29 04:00:00 12.8 6 Sudeste 27 Sudeste 0 -- -- 65
2020-11-29 03:00:00 13.6 12 Sur 24 Sudeste 0 -- -- 61
2020-11-29 02:00:00 14.7 10 Sur 29 Sudoeste 0 -- -- 56
2020-11-29 01:00:00 13.7 4 Nordeste 29 Sur 0 -- -- 63
2020-11-29 00:00:00 13.8 13 Sudeste 23 Sur 0 -- -- 65
2020-11-28 23:00:00 14.2 13 Sur 36 Sur 0 -- -- 64
2020-11-28 22:00:00 14.7 19 Sur 35 Sur 0 -- -- 63
2020-11-28 21:00:00 13.7 19 Sudeste 33 Sur 0 -- -- 65
2020-11-28 20:00:00 14.5 24 Sudeste 32 Sudeste 0 -- -- 61
2020-11-28 19:00:00 14.5 17 Sudeste 33 Sudeste 0 -- -- 64
2020-11-28 18:00:00 15 20 Sudeste 27 Sudeste 0 -- -- 63
2020-11-28 17:00:00 17 21 Sudeste 31 Sudeste 0 -- -- 57
2020-11-28 16:00:00 17.4 18 Este 26 Este 0 -- -- 59
2020-11-28 15:00:00 17.7 13 Este 28 Sudeste 0 -- -- 56
2020-11-28 14:00:00 17.5 14 Sudeste 22 Sudeste 0 -- -- 58
2020-11-28 13:00:00 17.5 13 Sudeste 21 Sudeste 0 -- -- 58
2020-11-28 12:00:00 17 14 Sudeste 20 Sudeste 0 -- -- 60
2020-11-28 11:00:00 15.7 6 Sur 19 Sudoeste 0 -- -- 62
2020-11-28 10:00:00 12.7 6 Sur 18 Sudeste 0 -- -- 72
2020-11-28 09:00:00 11 10 Sur 18 Sudeste 0 -- -- 75
2020-11-28 08:00:00 10.4 12 Sur 18 Sudeste 0 -- -- 77
2020-11-28 07:00:00 10.6 9 Sudeste 18 Sudeste 0 -- -- 77
2020-11-28 06:00:00 10.5 9 Sudeste 21 Sudeste 0 -- -- 79
2020-11-28 05:00:00 10.6 14 Sudeste 21 Sudeste 0 -- -- 79
2020-11-28 04:00:00 11.5 10 Sudeste 17 Sudeste 0 -- -- 76
2020-11-28 03:00:00 11.6 10 Sudeste 17 Sudeste 0 -- -- 76
2020-11-28 02:00:00 12.3 8 Sudeste 16 Sudoeste 0 -- -- 74
2020-11-28 01:00:00 12.6 8 Sur 14 Sudeste 0 -- -- 73
2020-11-28 00:00:00 13.2 11 Sudeste 15 Sudeste 0 -- -- 70
2020-11-27 23:00:00 13.6 4 Norte 22 Sudeste 0 -- -- 68
2020-11-27 22:00:00 14 14 Sudeste 22 Sur 0 -- -- 66
2020-11-27 21:00:00 15.1 18 Sudeste 27 Sur 0 -- -- 61
2020-11-27 20:00:00 14.7 10 Sur 20 Sudeste 0 -- -- 66
2020-11-27 19:00:00 15.8 15 Sudeste 24 Sur 0 -- -- 62
2020-11-27 18:00:00 15.2 9 Sur 14 Sur 0 -- -- 74
2020-11-27 17:00:00 15.7 8 Sudeste 17 Sudeste 0 -- -- 70
2020-11-27 16:00:00 15.7 9 Sudeste 14 Sudeste 0 -- -- 72
2020-11-27 15:00:00 17 6 Sudeste 9 Sudeste 0 -- -- 62
2020-11-27 14:00:00 17.7 3 Sudeste 17 Sudeste 0 -- -- 60
2020-11-27 13:00:00 17.4 10 Sur 16 Sur 0 -- -- 65
2020-11-27 12:00:00 16.2 4 Sudeste 20 Oeste 0 -- -- 70
2020-11-27 11:00:00 15.2 10 Oeste 18 Sudoeste 0 -- -- 70
2020-11-27 10:00:00 14.3 5 Oeste 28 Oeste 0 -- -- 70
2020-11-27 09:00:00 14.9 14 Sudoeste 28 Sur 0 -- -- 67
2020-11-27 08:00:00 14.6 27 Sur 37 Sur 0 -- -- 68
2020-11-27 07:00:00 14.1 14 Sudeste 36 Sur 0 -- -- 70
2020-11-27 06:00:00 14.5 23 Sur 45 Sur 0 -- -- 68
2020-11-27 05:00:00 14.3 18 Sur 31 Sur 0 -- -- 70
2020-11-27 04:00:00 14.2 15 Sur 28 Sudoeste 0 -- -- 70
2020-11-27 03:00:00 14.2 14 Sudoeste 25 Sudoeste 0 -- -- 70
2020-11-27 02:00:00 14.2 16 Sudoeste 26 Sudoeste 0 -- -- 70
2020-11-27 01:00:00 14.3 16 Sudoeste 27 Sudoeste 0 -- -- 70
2020-11-27 00:00:00 14.7 15 Sudoeste 25 Sur 0 -- -- 68
2020-11-26 23:00:00 14.6 9 Sudoeste 22 Oeste 0 -- -- 67
2020-11-26 22:00:00 14.2 15 Sudoeste 26 Sudoeste 0 -- -- 68
2020-11-26 21:00:00 14.2 15 Sudoeste 22 Sudoeste 0 -- -- 68
2020-11-26 20:00:00 14.7 16 Sur 24 Sur 0 -- -- 67
2020-11-26 19:00:00 15.6 12 Sudoeste 22 Sudeste 0 -- -- 62
2020-11-26 18:00:00 15.9 8 Sudeste 37 Sur 0 -- -- 61
2020-11-26 17:00:00 16.6 24 Sur 38 Sur 0 -- -- 58
2020-11-26 16:00:00 16.8 26 Sudeste 43 Sudeste 0 -- -- 60
2020-11-26 15:00:00 16.6 24 Sudeste 38 Sudeste 0 -- -- 59
2020-11-26 14:00:00 16.5 21 Sudeste 40 Sudeste 0 -- -- 58
2020-11-26 13:00:00 17.1 26 Sudeste 36 Sudeste 0 -- -- 56
2020-11-26 12:00:00 17 10 Sur 27 Sur 0 -- -- 57
2020-11-26 11:00:00 15.6 9 Oeste 25 Sur 0 -- -- 60
2020-11-26 10:00:00 14.2 17 Sudoeste 26 Sudoeste 0 -- -- 63
2020-11-26 09:00:00 14.5 13 Sur 35 Sur 0 -- -- 61
2020-11-26 08:00:00 13.8 7 Norte 21 Sudoeste 0 -- -- 64
2020-11-26 07:00:00 14 10 Sudeste 42 Sur 0 -- -- 64
2020-11-26 06:00:00 13.8 23 Sur 39 Sur 0 -- -- 64
2020-11-26 05:00:00 12.2 8 Nordeste 33 Sur 0 -- -- 69
2020-11-26 04:00:00 13.5 16 Sur 33 Sudeste 0 -- -- 62
2020-11-26 03:00:00 12.5 8 Sudoeste 20 Sudoeste 0 -- -- 66
2020-11-26 02:00:00 12.7 11 Sudoeste 20 Sudoeste 0 -- -- 65
2020-11-26 01:00:00 12.5 15 Sudoeste 19 Sudoeste 0 -- -- 65
2020-11-26 00:00:00 12.4 10 Oeste 33 Sudeste 0 -- -- 65
2020-11-25 23:00:00 12.3 8 Sur 15 Sudeste 0 -- -- 65
2020-11-25 22:00:00 11.5 9 Sur 14 Sudoeste 0 -- -- 66
2020-11-25 21:00:00 11.9 10 Sudeste 24 Este 0 -- -- 65
2020-11-25 20:00:00 11.9 6 Este 15 Este 0 -- -- 67
2020-11-25 19:00:00 11.9 7 Sudeste 22 Este 0 -- -- 82
2020-11-25 18:00:00 12.8 14 Este 21 Este 0 -- -- 87
2020-11-25 17:00:00 13.8 6 Este 21 Nordeste 0 -- -- 83
2020-11-25 16:00:00 15 14 Nordeste 18 Nordeste 0 -- -- 79
2020-11-25 15:00:00 15 12 Nordeste 17 Nordeste 0 -- -- 72
2020-11-25 14:00:00 17.9 4 Oeste 19 Sudoeste 0 -- -- 57
2020-11-25 13:00:00 18.2 9 Sudoeste 21 Sur 0 -- -- 52
2020-11-25 12:00:00 17 3 Nordeste 8 Este 0 -- -- 60
2020-11-25 11:00:00 16.7 0 Calma 8 Sudeste 0 -- -- 59
2020-11-25 10:00:00 14.6 4 Sur 15 Sudoeste 0 -- -- 60
2020-11-25 09:00:00 12.7 13 Sudoeste 22 Sudoeste 0 -- -- 64
2020-11-25 08:00:00 12.7 15 Sudoeste 30 Sudoeste 0 -- -- 62
2020-11-25 07:00:00 13 14 Oeste 27 Sur 0 -- -- 64
2020-11-25 06:00:00 13.8 4 Nordeste 19 Sudoeste 0 -- -- 60
2020-11-25 05:00:00 13.5 4 Norte 32 Sudoeste 0 -- -- 63
2020-11-25 04:00:00 14.1 14 Sur 29 Sur 0 -- -- 61
2020-11-25 03:00:00 13.3 16 Sudoeste 26 Sudoeste 0 -- -- 62
2020-11-25 02:00:00 12.1 13 Sudoeste 21 Sudoeste 0 -- -- 65
2020-11-25 01:00:00 12.4 17 Oeste 30 Sudoeste 0 -- -- 66
2020-11-25 00:00:00 13 14 Sudoeste 24 Sudoeste 0 -- -- 65
2020-11-24 23:00:00 11.7 10 Sudoeste 26 Sur 0 -- -- 74
2020-11-24 22:00:00 10.8 10 Sudeste 14 Sudeste 0 -- -- 81
2020-11-24 21:00:00 10.3 9 Sur 15 Sur 0 -- -- 88
2020-11-24 20:00:00 10.9 8 Sur 14 Sur 0 -- -- 85
2020-11-24 19:00:00 12.7 3 Sudeste 6 Este 0 -- -- 81
2020-11-24 18:00:00 13.4 5 Sudeste 9 Este 0 -- -- 77
2020-11-24 17:00:00 14 7 Este 12 Nordeste 0 -- -- 75
2020-11-24 16:00:00 14.8 9 Nordeste 12 Nordeste 0 -- -- 75
2020-11-24 15:00:00 15.9 6 Nordeste 11 Nordeste 0 -- -- 69
2020-11-24 14:00:00 16.5 3 Noroeste 9 Noroeste 0 -- -- 65
2020-11-24 13:00:00 15.8 6 Noroeste 9 Norte 0 -- -- 65
2020-11-24 12:00:00 14.8 7 Sudoeste 10 Sudoeste 0 -- -- 55
2020-11-24 11:00:00 13.4 6 Sudoeste 11 Sur 0 -- -- 56
2020-11-24 10:00:00 10.9 8 Sur 19 Sudoeste 0 -- -- 54
2020-11-24 09:00:00 9.1 15 Sudoeste 20 Sudoeste 0 -- -- 58
2020-11-24 08:00:00 8.7 14 Sudoeste 18 Sudoeste 0 -- -- 62
2020-11-24 07:00:00 7.8 13 Sudoeste 20 Sudoeste 0 -- -- 70
2020-11-24 06:00:00 7.2 12 Sudoeste 16 Oeste 0 -- -- 77
2020-11-24 05:00:00 7.2 9 Oeste 15 Sudoeste 0 -- -- 81
2020-11-24 04:00:00 6.8 10 Oeste 18 Oeste 0 -- -- 83
2020-11-24 03:00:00 7.6 8 Oeste 24 Sur 0 -- -- 80
2020-11-24 02:00:00 7.7 15 Sur 22 Sur 0 -- -- 78
2020-11-24 01:00:00 7.5 12 Sur 23 Sudeste 0 -- -- 82
2020-11-24 00:00:00 8.5 19 Sudeste 23 Sudeste 0 -- -- 78
2020-11-23 23:00:00 8.2 17 Sudeste 22 Sudeste 0 -- -- 81
2020-11-23 22:00:00 8.5 17 Sudeste 22 Sudeste 0 -- -- 84
2020-11-23 21:00:00 9.2 14 Sudeste 20 Sudeste 0 -- -- 86
2020-11-23 20:00:00 9.8 14 Sudeste 18 Sudeste 0 -- -- 85
2020-11-23 19:00:00 11.5 6 Este 9 Este 0 -- -- 74
2020-11-23 18:00:00 12.2 7 Sudeste 15 Este 0 -- -- 69
2020-11-23 17:00:00 13.4 5 Este 12 Este 0 -- -- 69
2020-11-23 16:00:00 14.3 9 Este 11 Este 0 -- -- 72
2020-11-23 15:00:00 15.9 6 Este 10 Este 0 -- -- 62
2020-11-23 14:00:00 15.7 7 Este 12 Este 0 -- -- 62
2020-11-23 13:00:00 15.4 3 Sudeste 8 Nordeste 0 -- -- 67
2020-11-23 12:00:00 13.9 4 Sudeste 14 Sudeste 0 -- -- 68
2020-11-23 11:00:00 11.4 7 Sudeste 19 Sudeste 0 -- -- 75
2020-11-23 10:00:00 8.6 12 Sur 19 Sudeste 0 -- -- 83
2020-11-23 09:00:00 6.5 11 Sur 19 Sudeste 0 -- -- 90
2020-11-23 08:00:00 6.1 10 Sur 21 Sudeste 0 -- -- 91
2020-11-23 07:00:00 6 12 Sur 18 Sudeste 0 -- -- 92
2020-11-23 06:00:00 5.9 12 Sur 16 Sur 0 -- -- 93
2020-11-23 05:00:00 6.2 6 Sur 10 Sur 0 -- -- 93
2020-11-23 04:00:00 6.4 7 Sur 15 Sudeste 0 -- -- 92
2020-11-23 03:00:00 6.4 11 Sur 17 Sudeste 0 -- -- 93
2020-11-23 02:00:00 7.2 12 Sudeste 14 Sudeste 0 -- -- 91
2020-11-23 01:00:00 7.4 12 Sur 17 Sur 0 -- -- 91
2020-11-23 00:00:00 7.7 7 Sur 10 Sur 0 -- -- 94
2020-11-22 23:00:00 8.4 8 Sudoeste 13 Sudoeste 0 -- -- 94
2020-11-22 22:00:00 9 7 Sur 13 Sur 0 -- -- 93
2020-11-22 21:00:00 9.6 9 Sur 12 Sur 0 -- -- 94
2020-11-22 20:00:00 10.5 8 Sur 12 Sudeste 0 -- -- 93
2020-11-22 19:00:00 11.4 4 Sudoeste 5 Sur 0 -- -- 92
2020-11-22 18:00:00 12.1 3 Norte 13 Norte 0 -- -- 90
2020-11-22 17:00:00 12.8 8 Nordeste 11 Norte 0 -- -- 86
2020-11-22 16:00:00 14.4 6 Norte 12 Nordeste 0 -- -- 80
2020-11-22 15:00:00 14.9 7 Nordeste 12 Nordeste 0 -- -- 76
2020-11-22 14:00:00 15.5 3 Norte 9 Norte 0 -- -- 70
2020-11-22 13:00:00 15 3 Norte 8 Oeste 0 -- -- 72
2020-11-22 12:00:00 14 4 Sudoeste 10 Sudoeste 0 -- -- 70
2020-11-22 11:00:00 10.3 8 Sudoeste 14 Sudoeste 0 -- -- 70
2020-11-22 10:00:00 7.1 13 Sudoeste 20 Sudoeste 0 -- -- 78
2020-11-22 09:00:00 5.6 15 Sudoeste 20 Sudoeste 0 -- -- 82
2020-11-22 08:00:00 4.8 12 Sur 13 Sur 0 -- -- 83
2020-11-22 07:00:00 4.6 12 Sudoeste 19 Sudoeste 0 -- -- 87
2020-11-22 06:00:00 4.2 10 Sudoeste 20 Sudoeste 0 -- -- 89
2020-11-22 05:00:00 4.4 13 Sudoeste 15 Sudoeste 0 -- -- 90
2020-11-22 04:00:00 5.2 9 Oeste 10 Sudoeste 0 -- -- 88
2020-11-22 03:00:00 4.5 8 Sudoeste 15 Sudoeste 0 -- -- 93
2020-11-22 02:00:00 5 8 Sudoeste 12 Sur 0 -- -- 92
2020-11-22 01:00:00 5.2 6 Sudoeste 9 Sudoeste 0 -- -- 92
2020-11-22 00:00:00 5.4 8 Sur 17 Sudeste 0 -- -- 91
2020-11-21 23:00:00 5.9 12 Sudeste 17 Sudeste 0 -- -- 91
2020-11-21 22:00:00 6.7 15 Sudeste 20 Sudeste 0 -- -- 89
2020-11-21 21:00:00 7.8 4 Sudeste 11 Sudeste 0 -- -- 85
2020-11-21 20:00:00 8.8 7 Sudeste 16 Este 0 -- -- 80
2020-11-21 19:00:00 9.3 10 Este 14 Este 0 -- -- 78
2020-11-21 18:00:00 10 9 Este 18 Este 0 -- -- 75
2020-11-21 17:00:00 11.7 11 Este 21 Este 0 -- -- 68
2020-11-21 16:00:00 13.2 13 Este 25 Este 0 -- -- 64
2020-11-21 15:00:00 13.6 16 Este 23 Este 0 -- -- 59
2020-11-21 14:00:00 13.6 15 Este 25 Este 0 -- -- 60
2020-11-21 13:00:00 12.8 13 Este 24 Este 0 -- -- 61
2020-11-21 12:00:00 11.6 14 Este 22 Este 0 -- -- 64
2020-11-21 11:00:00 10 9 Sudeste 19 Sudeste 0 -- -- 75
2020-11-21 10:00:00 7.3 14 Sudeste 20 Sudeste 0 -- -- 81
2020-11-21 09:00:00 5 13 Sur 21 Sudeste 0 -- -- 90
2020-11-21 08:00:00 4.7 8 Sudeste 15 Sudeste 0 -- -- 93
2020-11-21 07:00:00 5.3 10 Sudeste 13 Sudeste 0 -- -- 93
2020-11-21 06:00:00 5.7 8 Sudeste 18 Sudeste 0 -- -- 92
2020-11-21 05:00:00 6.1 13 Sudeste 23 Sudeste 0 -- -- 93
2020-11-21 04:00:00 6.3 17 Sudeste 24 Sudeste 0 -- -- 95
2020-11-21 03:00:00 6.5 14 Sudeste 19 Sudeste 0 -- -- 95
2020-11-21 02:00:00 6.6 12 Sudeste 19 Sur 0 -- -- 95
2020-11-21 01:00:00 7 9 Sudeste 15 Sudeste 0 -- -- 94
2020-11-21 00:00:00 7.6 7 Sudeste 18 Sudeste 0 -- -- 94
2020-11-20 23:00:00 7.8 14 Sudeste 18 Sudeste 0 -- -- 93
2020-11-20 22:00:00 8.3 14 Sudeste 17 Sudeste 0 -- -- 92
2020-11-20 21:00:00 9.2 0 Calma 9 Sur 0 -- -- 89
2020-11-20 20:00:00 9.9 4 Sudeste 8 Este 0 -- -- 87
2020-11-20 19:00:00 10.6 9 Este 24 Este 0 -- -- 84
2020-11-20 18:00:00 11.3 17 Este 25 Este 0 -- -- 81
2020-11-20 17:00:00 12.3 10 Este 26 Este 0 -- -- 74
2020-11-20 16:00:00 12.9 19 Este 26 Nordeste 0 -- -- 74
2020-11-20 15:00:00 14 13 Este 18 Este 0 -- -- 66
2020-11-20 14:00:00 13.2 9 Este 19 Este 0 -- -- 68
2020-11-20 13:00:00 14.5 8 Este 16 Sudeste 0 -- -- 70
2020-11-20 12:00:00 13.6 9 Sudeste 16 Sudeste 0 -- -- 76
2020-11-20 11:00:00 10.4 10 Sudeste 15 Sudeste 0 -- -- 90
2020-11-20 10:00:00 9.4 10 Sudeste 18 Sudeste 0 -- -- 93
2020-11-20 09:00:00 9.3 7 Sur 13 Sudeste 0 -- -- 94
2020-11-20 08:00:00 9.6 9 Sudeste 12 Sudeste 0 -- -- 95
2020-11-20 07:00:00 9.8 4 Sur 10 Sudeste 0 -- -- 95
2020-11-20 06:00:00 9.9 8 Sudeste 11 Sudeste 0 -- -- 95
2020-11-20 05:00:00 10 8 Sudoeste 10 Sudoeste 0 -- -- 94
2020-11-20 04:00:00 10.1 6 Sudeste 14 Sudeste 0 -- -- 93
2020-11-20 03:00:00 10.2 8 Sudeste 13 Sudeste 0 -- -- 93
2020-11-20 02:00:00 10.3 5 Sudoeste 14 Sur 0 -- -- 94
2020-11-20 01:00:00 10.4 11 Sudeste 15 Sudeste 0 -- -- 95
2020-11-20 00:00:00 10.4 3 Sur 8 Sur 0 -- -- 95
2020-11-19 23:00:00 10.5 6 Sur 9 Sudeste 0 -- -- 95
2020-11-19 22:00:00 10.5 6 Sudoeste 10 Sudoeste 0 -- -- 95
2020-11-19 21:00:00 10.6 5 Sudoeste 13 Sudoeste 0 -- -- 95
2020-11-19 20:00:00 10.8 8 Sudoeste 9 Sudoeste 0 -- -- 94
2020-11-19 19:00:00 10.8 3 Sur 15 Sudeste 0 -- -- 93
2020-11-19 18:00:00 11.3 5 Sur 14 Este 0 -- -- 91
2020-11-19 17:00:00 11.8 6 Nordeste 20 Nordeste 0 -- -- 87
2020-11-19 16:00:00 12.2 8 Nordeste 17 Este 0 -- -- 90
2020-11-19 15:00:00 12.3 11 Nordeste 23 Nordeste 0 -- -- 93
2020-11-19 14:00:00 12.8 7 Nordeste 19 Este 0 -- -- 96
2020-11-19 13:00:00 11.7 12 Nordeste 20 Nordeste 0.4 -- -- 99
2020-11-19 12:00:00 12 10 Nordeste 15 Nordeste 0.6 -- -- 99
2020-11-19 11:00:00 11.9 11 Norte 20 Norte 0.4 -- -- 99
2020-11-19 10:00:00 12 8 Nordeste 15 Norte 0.6 -- -- 99
2020-11-19 09:00:00 12 6 Norte 21 Norte 1.4 -- -- 99
2020-11-19 08:00:00 12.5 12 Nordeste 27 Norte 0.6 -- -- 98
2020-11-19 07:00:00 13.5 12 Nordeste 22 Nordeste 0.2 -- -- 98
2020-11-19 06:00:00 14 12 Norte 15 Norte 1.2 -- -- 98
2020-11-19 05:00:00 14.3 9 Nordeste 19 Nordeste 0 -- -- 97
2020-11-19 04:00:00 14.8 13 Norte 27 Norte 0 -- -- 96
2020-11-19 03:00:00 15.6 12 Noroeste 24 Oeste 0 -- -- 93
2020-11-19 02:00:00 13.9 10 Oeste 19 Oeste 0 -- -- 84
2020-11-19 01:00:00 13.4 13 Noroeste 22 Noroeste 0 -- -- 86
2020-11-19 00:00:00 13.2 7 Sur 13 Sur 0 -- -- 86
2020-11-18 23:00:00 13.1 8 Sudoeste 16 Sudoeste 0 -- -- 85
2020-11-18 22:00:00 13.9 7 Sudoeste 20 Sudoeste 0 -- -- 83
2020-11-18 21:00:00 14.3 10 Sudoeste 14 Sudoeste 0 -- -- 81
2020-11-18 20:00:00 15.1 9 Sudoeste 13 Sudoeste 0 -- -- 79
2020-11-18 19:00:00 15.9 10 Sudoeste 12 Oeste 0 -- -- 75
2020-11-18 18:00:00 16.9 6 Oeste 9 Noroeste 0 -- -- 76
2020-11-18 17:00:00 18.3 8 Norte 17 Nordeste 0 -- -- 67
2020-11-18 16:00:00 20.1 10 Nordeste 24 Este 0 -- -- 53
2020-11-18 15:00:00 21.1 15 Nordeste 23 Este 0 -- -- 54
2020-11-18 14:00:00 22.1 15 Este 21 Este 0 -- -- 54
2020-11-18 13:00:00 23 15 Sudeste 23 Sudeste 0 -- -- 55
2020-11-18 12:00:00 22.9 3 Este 8 Sur 0 -- -- 55
2020-11-18 11:00:00 21 4 Sudeste 10 Sudeste 0 -- -- 56
2020-11-18 10:00:00 18.3 8 Sur 19 Sudeste 0 -- -- 60
2020-11-18 09:00:00 17.5 7 Sudeste 14 Sudeste 0 -- -- 58
2020-11-18 08:00:00 16.5 9 Sudeste 15 Sudeste 0 -- -- 58
2020-11-18 07:00:00 16.6 12 Sudeste 18 Sudeste 0 -- -- 57
2020-11-18 06:00:00 16.7 9 Sur 12 Sur 0 -- -- 56
2020-11-18 05:00:00 16.1 8 Sudoeste 17 Sudoeste 0 -- -- 56
2020-11-18 04:00:00 16.3 13 Sudoeste 17 Sudoeste 0 -- -- 53
2020-11-18 03:00:00 17.4 3 Sur 10 Oeste 0 -- -- 46
2020-11-18 02:00:00 17.1 5 Sudoeste 12 Sudeste 0 -- -- 45
2020-11-18 01:00:00 17.4 11 Sur 17 Sur 0 -- -- 47
2020-11-18 00:00:00 17.2 9 Sur 15 Sudeste 0 -- -- 51
2020-11-17 23:00:00 16.7 10 Sur 19 Sudeste 0 -- -- 56
2020-11-17 22:00:00 16.4 8 Sudeste 16 Sudeste 0 -- -- 60
2020-11-17 21:00:00 15.6 8 Sur 11 Sudeste 0 -- -- 70
2020-11-17 20:00:00 14.8 3 Oeste 8 Oeste 0 -- -- 85
2020-11-17 19:00:00 14.9 6 Oeste 9 Sudoeste 0 -- -- 84
2020-11-17 18:00:00 16.9 0 Calma 4 Este 0 -- -- 74
2020-11-17 17:00:00 18.6 0 Calma 3 Norte 0 -- -- 70
2020-11-17 16:00:00 19 3 Norte 5 Noroeste 0 -- -- 69
2020-11-17 15:00:00 19.3 2 Norte 8 Nordeste 0 -- -- 68
2020-11-17 14:00:00 18.4 4 Nordeste 8 Nordeste 0 -- -- 71
2020-11-17 13:00:00 18 3 Este 5 Este 0 -- -- 67
2020-11-17 12:00:00 16.2 2 Este 8 Sudeste 0 -- -- 72
2020-11-17 11:00:00 14.1 7 Sudeste 15 Sudeste 0 -- -- 73
2020-11-17 10:00:00 11.9 10 Sudeste 17 Sudeste 0 -- -- 77
2020-11-17 09:00:00 9.5 13 Sudeste 18 Sudeste 0 -- -- 87
2020-11-17 08:00:00 7.6 9 Sur 17 Sudoeste 0 -- -- 94
2020-11-17 07:00:00 8 8 Sur 13 Oeste 0 -- -- 92
2020-11-17 06:00:00 8.6 7 Oeste 15 Sudeste 0 -- -- 91
2020-11-17 05:00:00 8.8 10 Sur 15 Sur 0 -- -- 93
2020-11-17 04:00:00 8.7 9 Sur 20 Sudeste 0 -- -- 94
2020-11-17 03:00:00 8.6 14 Sudeste 19 Sudeste 0 -- -- 95
2020-11-17 02:00:00 8.9 11 Sur 14 Sudeste 0 -- -- 95
2020-11-17 01:00:00 9.1 7 Sudoeste 10 Oeste 0 -- -- 94
2020-11-17 00:00:00 9.7 2 Sur 12 Sudeste 0 -- -- 94
2020-11-16 23:00:00 9.9 8 Sudeste 14 Sudeste 0 -- -- 94
2020-11-16 22:00:00 10.2 8 Sudeste 16 Sudeste 0 -- -- 93
2020-11-16 21:00:00 11.1 8 Sur 10 Sur 0 -- -- 90
2020-11-16 20:00:00 12.1 3 Sudoeste 6 Sudeste 0 -- -- 87
2020-11-16 19:00:00 12.9 3 Sur 8 Sudeste 0 -- -- 83
2020-11-16 18:00:00 13.4 0 Calma 12 Nordeste 0 -- -- 82
2020-11-16 17:00:00 14 8 Nordeste 15 Nordeste 0 -- -- 80
2020-11-16 16:00:00 14.9 11 Norte 15 Nordeste 0 -- -- 74
2020-11-16 15:00:00 15.4 9 Nordeste 19 Nordeste 0 -- -- 69
2020-11-16 14:00:00 16.5 6 Nordeste 11 Nordeste 0 -- -- 66
2020-11-16 13:00:00 16.2 5 Norte 10 Oeste 0 -- -- 69
2020-11-16 12:00:00 15.9 6 Sudoeste 10 Sudoeste 0 -- -- 72
2020-11-16 11:00:00 14.2 6 Sudoeste 9 Sudoeste 0 -- -- 91
2020-11-16 10:00:00 12.9 6 Sur 13 Sudoeste 0 -- -- 94
2020-11-16 09:00:00 12.1 11 Sudoeste 15 Sudoeste 0 -- -- 96
2020-11-16 08:00:00 12 6 Sudoeste 9 Sudoeste 0.2 -- -- 96
2020-11-16 07:00:00 12 7 Sur 9 Sur 0 -- -- 97
2020-11-16 06:00:00 11.9 6 Sur 12 Sudoeste 0.2 -- -- 97
2020-11-16 05:00:00 11.9 6 Sur 10 Sudoeste 0 -- -- 97
2020-11-16 04:00:00 12 3 Sudeste 12 Sudeste 0.6 -- -- 97
2020-11-16 03:00:00 12 3 Sudeste 10 Sur 0.2 -- -- 97
2020-11-16 02:00:00 11.9 4 Oeste 16 Noroeste 0.8 -- -- 96
2020-11-16 01:00:00 12.3 6 Norte 13 Norte 0 -- -- 94
2020-11-16 00:00:00 12.6 6 Sudoeste 11 Oeste 0 -- -- 94
2020-11-15 23:00:00 12.4 8 Sudoeste 15 Sudoeste 0 -- -- 95
2020-11-15 22:00:00 12.4 10 Sudoeste 16 Sudoeste 0 -- -- 96
2020-11-15 21:00:00 12.4 10 Oeste 23 Oeste 0 -- -- 96
2020-11-15 20:00:00 12.4 9 Oeste 26 Oeste 0.6 -- -- 97
2020-11-15 19:00:00 12.4 18 Noroeste 36 Noroeste 2 -- -- 96
2020-11-15 18:00:00 13.3 14 Noroeste 32 Oeste 1.8 -- -- 96
2020-11-15 17:00:00 13.7 13 Oeste 24 Oeste 0.4 -- -- 95
2020-11-15 16:00:00 13.8 15 Oeste 43 Noroeste 0 -- -- 95
2020-11-15 15:00:00 13.9 27 Oeste 43 Noroeste 0 -- -- 95
2020-11-15 14:00:00 15.1 18 Noroeste 30 Noroeste 0 -- -- 94
2020-11-15 13:00:00 16.9 15 Noroeste 33 Norte 0 -- -- 86
2020-11-15 12:00:00 19.8 17 Noroeste 34 Noroeste 0 -- -- 65
2020-11-15 11:00:00 21.4 19 Sudoeste 32 Sudoeste 0 -- -- 57
2020-11-15 10:00:00 20.8 12 Sudoeste 33 Sudoeste 0 -- -- 58
2020-11-15 09:00:00 20.2 15 Sudoeste 26 Sur 0 -- -- 58
2020-11-15 08:00:00 19.5 11 Sur 32 Sur 0 -- -- 59
2020-11-15 07:00:00 19.7 19 Sur 32 Sur 0 -- -- 60
2020-11-15 06:00:00 19 10 Sur 17 Sur 0 -- -- 60
2020-11-15 05:00:00 18.8 9 Sur 22 Sudoeste 0 -- -- 62
2020-11-15 04:00:00 19.5 9 Sur 42 Sudoeste 0 -- -- 59
2020-11-15 03:00:00 19.6 24 Sudoeste 43 Sudoeste 0 -- -- 58
2020-11-15 02:00:00 18.7 11 Sudoeste 24 Sur 0 -- -- 57
2020-11-15 01:00:00 19.3 16 Sudoeste 31 Sudoeste 0 -- -- 52
2020-11-15 00:00:00 17.7 3 Oeste 15 Sudoeste 0 -- -- 58
2020-11-14 23:00:00 18.1 7 Sudoeste 22 Sudeste 0 -- -- 59
2020-11-14 22:00:00 18.7 10 Sudeste 32 Sur 0 -- -- 60
2020-11-14 21:00:00 18.1 12 Sur 27 Sudoeste 0 -- -- 61
2020-11-14 20:00:00 17.8 6 Sur 18 Sudoeste 0 -- -- 60
2020-11-14 19:00:00 18.8 12 Sudoeste 18 Sudoeste 0 -- -- 55
2020-11-14 18:00:00 18.8 8 Sudoeste 30 Sudoeste 0 -- -- 57
2020-11-14 17:00:00 19.9 18 Sudoeste 35 Sudoeste 0 -- -- 55
2020-11-14 16:00:00 22.1 16 Sudoeste 32 Sur 0 -- -- 49
2020-11-14 15:00:00 22 18 Sur 27 Sudoeste 0 -- -- 47
2020-11-14 14:00:00 22.7 16 Sur 30 Sur 0 -- -- 46
2020-11-14 13:00:00 22.8 14 Sudoeste 30 Sur 0 -- -- 45
2020-11-14 12:00:00 22.2 12 Sur 30 Sudoeste 0 -- -- 43
2020-11-14 11:00:00 20.6 8 Sudoeste 20 Sur 0 -- -- 49
2020-11-14 10:00:00 16.7 5 Sur 18 Sudeste 0 -- -- 60
2020-11-14 09:00:00 14.4 12 Sur 18 Sudeste 0 -- -- 62
2020-11-14 08:00:00 13 11 Sur 20 Sudeste 0 -- -- 66
2020-11-14 07:00:00 13 8 Sudeste 13 Sudeste 0 -- -- 65
2020-11-14 06:00:00 12.5 7 Sudoeste 11 Sudoeste 0 -- -- 65
2020-11-14 05:00:00 13.3 6 Sur 14 Oeste 0 -- -- 61
2020-11-14 04:00:00 12.7 12 Oeste 22 Sudoeste 0 -- -- 63
2020-11-14 03:00:00 12.6 16 Sudoeste 21 Sudoeste 0 -- -- 66
2020-11-14 02:00:00 12.9 10 Oeste 18 Oeste 0 -- -- 65
2020-11-14 01:00:00 12.8 4 Sur 13 Sudoeste 0 -- -- 70
2020-11-14 00:00:00 11.8 9 Oeste 13 Oeste 0 -- -- 82
2020-11-13 23:00:00 12.1 9 Oeste 15 Oeste 0 -- -- 83
2020-11-13 22:00:00 12.6 5 Sudoeste 11 Oeste 0 -- -- 85
2020-11-13 21:00:00 13 7 Sudoeste 14 Sur 0 -- -- 84
2020-11-13 20:00:00 13.7 6 Sudoeste 14 Sudeste 0 -- -- 82
2020-11-13 19:00:00 16.1 6 Este 10 Este 0 -- -- 71
2020-11-13 18:00:00 17.4 5 Sudeste 9 Sudeste 0 -- -- 65
2020-11-13 17:00:00 18.3 6 Este 17 Este 0 -- -- 61
2020-11-13 16:00:00 19.3 14 Este 20 Este 0 -- -- 59
2020-11-13 15:00:00 20.3 13 Este 22 Este 0 -- -- 53
2020-11-13 14:00:00 20.4 12 Este 25 Sudeste 0 -- -- 53
2020-11-13 13:00:00 19.9 17 Sudeste 27 Sudeste 0 -- -- 51
2020-11-13 12:00:00 19 22 Sudeste 36 Sudeste 0 -- -- 54
2020-11-13 11:00:00 18.6 22 Sudeste 27 Sudeste 0 -- -- 57
2020-11-13 10:00:00 16.7 12 Sudeste 19 Sur 0 -- -- 63
2020-11-13 09:00:00 14.7 9 Sur 18 Sudeste 0 -- -- 66
2020-11-13 08:00:00 14 8 Sur 15 Sur 0 -- -- 66
2020-11-13 07:00:00 14.3 8 Sur 17 Sudoeste 0 -- -- 63
2020-11-13 06:00:00 13.7 13 Sudoeste 18 Sudoeste 0 -- -- 64
2020-11-13 05:00:00 13.8 14 Sudoeste 20 Sudoeste 0 -- -- 64
2020-11-13 04:00:00 13.8 6 Sudoeste 17 Sudoeste 0 -- -- 72
2020-11-13 03:00:00 15.8 10 Sudoeste 14 Sudoeste 0 -- -- 51
2020-11-13 02:00:00 15.6 12 Oeste 21 Oeste 0 -- -- 54
2020-11-13 01:00:00 16.4 9 Oeste 15 Oeste 0 -- -- 50
2020-11-13 00:00:00 16.6 3 Oeste 12 Oeste 0 -- -- 55
2020-11-12 23:00:00 16.3 3 Oeste 11 Oeste 0 -- -- 62
2020-11-12 22:00:00 16.6 7 Noroeste 12 Noroeste 0 -- -- 63
2020-11-12 21:00:00 16.2 12 Sur 22 Sudeste 0 -- -- 65
2020-11-12 20:00:00 14.6 15 Sudeste 22 Sudeste 0 -- -- 84
2020-11-12 19:00:00 15.2 13 Sudeste 17 Sudeste 0 -- -- 82
2020-11-12 18:00:00 16.7 3 Sudeste 6 Nordeste 0 -- -- 75
2020-11-12 17:00:00 17.9 3 Nordeste 13 Nordeste 0 -- -- 71
2020-11-12 16:00:00 18.3 11 Nordeste 18 Nordeste 0 -- -- 73
2020-11-12 15:00:00 18.5 11 Nordeste 15 Nordeste 0 -- -- 76
2020-11-12 14:00:00 18.1 11 Norte 15 Nordeste 0 -- -- 77
2020-11-12 13:00:00 18.6 8 Nordeste 13 Nordeste 0 -- -- 65
2020-11-12 12:00:00 18.2 4 Nordeste 7 Este 0 -- -- 63
2020-11-12 11:00:00 16.8 7 Este 12 Oeste 0 -- -- 67
2020-11-12 10:00:00 15.8 6 Sudeste 16 Sudeste 0 -- -- 69
2020-11-12 09:00:00 14.6 3 Este 7 Sur 0 -- -- 67
2020-11-12 08:00:00 14.5 5 Sur 10 Sur 0 -- -- 67
2020-11-12 07:00:00 15 4 Sudoeste 15 Sudeste 0 -- -- 64
2020-11-12 06:00:00 14.8 10 Sudeste 14 Sudeste 0 -- -- 65
2020-11-12 05:00:00 14.8 10 Sudeste 14 Sudeste 0 -- -- 63
2020-11-12 04:00:00 15.4 6 Sur 10 Sudoeste 0 -- -- 59
2020-11-12 03:00:00 15.4 7 Sudeste 12 Sur 0 -- -- 59
2020-11-12 02:00:00 15.5 10 Sudeste 15 Sudeste 0 -- -- 60
2020-11-12 01:00:00 15.2 9 Sudeste 15 Sudeste 0 -- -- 62
2020-11-12 00:00:00 15 10 Sudeste 14 Sudeste 0 -- -- 63
2020-11-11 23:00:00 14.6 5 Oeste 17 Noroeste 0 -- -- 69
2020-11-11 22:00:00 15.9 4 Sudoeste 15 Sudoeste 0 -- -- 55
2020-11-11 21:00:00 16.1 5 Sudoeste 10 Sudeste 0 -- -- 53
2020-11-11 20:00:00 15.8 7 Sudeste 18 Sudeste 0 -- -- 56
2020-11-11 19:00:00 15.1 9 Sur 13 Sudeste 0 -- -- 64
2020-11-11 18:00:00 14.7 6 Sur 9 Sur 0 -- -- 69
2020-11-11 17:00:00 15 6 Norte 12 Norte 0 -- -- 69
2020-11-11 16:00:00 15.8 10 Nordeste 15 Norte 0 -- -- 62
2020-11-11 15:00:00 16.6 6 Norte 12 Nordeste 0 -- -- 74
2020-11-11 14:00:00 19.5 4 Norte 10 Oeste 0 -- -- 65
2020-11-11 13:00:00 19.1 6 Nordeste 10 Norte 0 -- -- 64
2020-11-11 12:00:00 18.7 3 Nordeste 9 Oeste 0 -- -- 63
2020-11-11 11:00:00 17.6 4 Sudoeste 11 Sudeste 0 -- -- 62
2020-11-11 10:00:00 15.7 4 Sur 10 Sudeste 0 -- -- 60
2020-11-11 09:00:00 13.5 5 Sudeste 10 Sur 0 -- -- 62
2020-11-11 08:00:00 12 6 Sudoeste 9 Sudoeste 0 -- -- 65
2020-11-11 07:00:00 11.1 5 Sudoeste 13 Sudoeste 0 -- -- 68
2020-11-11 06:00:00 10.2 5 Sudoeste 17 Sudoeste 0 -- -- 74
2020-11-11 05:00:00 10.1 8 Sudoeste 11 Oeste 0 -- -- 77
2020-11-11 04:00:00 10.8 8 Sudoeste 11 Sudoeste 0 -- -- 74
2020-11-11 03:00:00 11.5 8 Sudeste 14 Sudeste 0 -- -- 72
2020-11-11 02:00:00 11 5 Sur 12 Sudeste 0 -- -- 78
2020-11-11 01:00:00 11.4 4 Sur 10 Sur 0 -- -- 78
2020-11-11 00:00:00 11.6 4 Sur 9 Sur 0 -- -- 81
2020-11-10 23:00:00 11.1 9 Sur 15 Sur 0 -- -- 89
2020-11-10 22:00:00 11.3 7 Sudoeste 12 Sudeste 0 -- -- 93
2020-11-10 21:00:00 12.1 8 Sur 10 Sudeste 0 -- -- 92
2020-11-10 20:00:00 12.7 5 Sudoeste 9 Sudeste 0 -- -- 90
2020-11-10 19:00:00 13.6 4 Sudeste 8 Este 0 -- -- 87
2020-11-10 18:00:00 14.3 7 Nordeste 17 Este 0 -- -- 84
2020-11-10 17:00:00 15.4 12 Nordeste 19 Nordeste 0 -- -- 84
2020-11-10 16:00:00 16.2 13 Este 25 Este 0 -- -- 80
2020-11-10 15:00:00 17 16 Este 22 Nordeste 0 -- -- 75
2020-11-10 14:00:00 17.4 11 Nordeste 21 Nordeste 0 -- -- 74
2020-11-10 13:00:00 18 8 Nordeste 13 Nordeste 0 -- -- 74
2020-11-10 12:00:00 16.6 3 Sur 5 Sudeste 0 -- -- 76
2020-11-10 11:00:00 14.8 3 Este 6 Sur 0 -- -- 87
2020-11-10 10:00:00 14.1 6 Sur 9 Sudeste 0 -- -- 88
2020-11-10 09:00:00 12.7 7 Sur 13 Sudeste 0 -- -- 94
2020-11-10 08:00:00 11.9 7 Sur 17 Sudeste 0 -- -- 94
2020-11-10 07:00:00 11.9 13 Sudeste 17 Sudeste 0 -- -- 94
2020-11-10 06:00:00 11.9 4 Sudoeste 13 Sudoeste 0 -- -- 93
2020-11-10 05:00:00 12 9 Sudoeste 14 Sudoeste 0 -- -- 94
2020-11-10 04:00:00 12.2 8 Sudoeste 14 Sudoeste 0 -- -- 94
2020-11-10 03:00:00 12.1 10 Sudoeste 14 Sudoeste 0 -- -- 95
2020-11-10 02:00:00 12.2 11 Sudoeste 14 Sudoeste 0 -- -- 95
2020-11-10 01:00:00 12 8 Sudoeste 17 Sudoeste 0 -- -- 95
2020-11-10 00:00:00 11.8 11 Sudoeste 14 Sudoeste 0 -- -- 95
2020-11-09 23:00:00 12.3 9 Sudoeste 12 Sudoeste 0 -- -- 94
2020-11-09 22:00:00 13.1 7 Sudoeste 12 Sudoeste 0 -- -- 93
2020-11-09 21:00:00 13.8 8 Sudoeste 17 Sudoeste 0 -- -- 93
2020-11-09 20:00:00 14.7 10 Sudoeste 19 Oeste 0.2 -- -- 91
2020-11-09 19:00:00 15.4 14 Oeste 23 Oeste 0 -- -- 88
2020-11-09 18:00:00 15.9 11 Oeste 25 Noroeste 0 -- -- 84
2020-11-09 17:00:00 17.2 11 Noroeste 21 Oeste 0 -- -- 73
2020-11-09 16:00:00 17.8 13 Noroeste 19 Noroeste 0 -- -- 71
2020-11-09 15:00:00 19 15 Noroeste 23 Noroeste 0 -- -- 63
2020-11-09 14:00:00 20.3 12 Norte 19 Norte 0 -- -- 56
2020-11-09 13:00:00 21.3 4 Nordeste 9 Sudeste 0 -- -- 52
2020-11-09 12:00:00 21.3 4 Sur 9 Sudeste 0 -- -- 52
2020-11-09 11:00:00 19.2 5 Sur 10 Sudeste 0 -- -- 57
2020-11-09 10:00:00 17.2 5 Sur 13 Sudeste 0 -- -- 61
2020-11-09 09:00:00 14.9 5 Sur 12 Sudoeste 0 -- -- 64
2020-11-09 08:00:00 14.4 9 Sur 16 Sur 0 -- -- 64
2020-11-09 07:00:00 14.7 8 Sur 12 Sudoeste 0 -- -- 64
2020-11-09 06:00:00 15.3 9 Sudoeste 14 Sudoeste 0 -- -- 63
2020-11-09 05:00:00 15.4 12 Sudoeste 22 Sudoeste 0 -- -- 65
2020-11-09 04:00:00 16.1 13 Sudoeste 28 Sudoeste 0 -- -- 63
2020-11-09 03:00:00 16.5 12 Sudoeste 22 Sudoeste 0 -- -- 62
2020-11-09 02:00:00 17.4 11 Sudoeste 42 Sudoeste 0 -- -- 60
2020-11-09 01:00:00 17.8 13 Sur 39 Sur 0 -- -- 58
2020-11-09 00:00:00 17.6 11 Sudeste 43 Sudoeste 0 -- -- 60
2020-11-08 23:00:00 18.1 12 Sur 45 Sudoeste 0 -- -- 59
2020-11-08 22:00:00 18.9 24 Sur 40 Sur 0 -- -- 56
2020-11-08 21:00:00 18.5 23 Sudoeste 49 Sur 0 -- -- 58
2020-11-08 20:00:00 18.8 32 Sur 50 Sudoeste 0 -- -- 58
2020-11-08 19:00:00 18.5 28 Sur 50 Sur 0 -- -- 58
2020-11-08 18:00:00 18.4 27 Sur 43 Sur 0 -- -- 57
2020-11-08 17:00:00 18.6 15 Sur 51 Sur 0 -- -- 58
2020-11-08 16:00:00 18.9 22 Sudoeste 41 Sudoeste 0 -- -- 57
2020-11-08 15:00:00 18.7 29 Sur 50 Sudoeste 0 -- -- 58
2020-11-08 14:00:00 19.2 25 Sur 43 Sur 0 -- -- 54
2020-11-08 13:00:00 19.1 24 Sur 42 Sudoeste 0 -- -- 55
2020-11-08 12:00:00 19.3 26 Sur 41 Sur 0 -- -- 55
2020-11-08 11:00:00 18.6 12 Sur 32 Sudeste 0 -- -- 59
2020-11-08 10:00:00 19.1 12 Sur 31 Sur 0 -- -- 56
2020-11-08 09:00:00 18 18 Sur 41 Sur 0 -- -- 59
2020-11-08 08:00:00 17 22 Sur 35 Sur 0 -- -- 62
2020-11-08 07:00:00 17.2 28 Sur 49 Sudoeste 0 -- -- 61
2020-11-08 06:00:00 17.3 26 Sur 43 Sudoeste 0 -- -- 61
2020-11-08 05:00:00 17.7 16 Sudoeste 36 Sur 0 -- -- 60
2020-11-08 04:00:00 17.4 19 Sur 37 Sur 0 -- -- 61
2020-11-08 03:00:00 16.9 13 Sudoeste 31 Sur 0 -- -- 62
2020-11-08 02:00:00 16.9 12 Sur 26 Sur 0 -- -- 62
2020-11-08 01:00:00 16.8 4 Este 15 Sur 0 -- -- 63
2020-11-08 00:00:00 17.1 4 Sur 30 Sur 0 -- -- 60
2020-11-07 23:00:00 15.9 8 Sur 14 Sudeste 0 -- -- 64
2020-11-07 22:00:00 15.7 7 Sur 12 Sudeste 0 -- -- 68
2020-11-07 21:00:00 14.6 6 Sur 12 Sudeste 0 -- -- 84
2020-11-07 20:00:00 14.8 9 Sur 15 Sudeste 0 -- -- 87
2020-11-07 19:00:00 15.4 8 Sudeste 12 Sudeste 0 -- -- 84
2020-11-07 18:00:00 16.4 3 Sudeste 5 Sudeste 0 -- -- 79
2020-11-07 17:00:00 16.9 4 Norte 18 Noroeste 0 -- -- 77
2020-11-07 16:00:00 17.3 12 Norte 16 Norte 0 -- -- 78
2020-11-07 15:00:00 19.2 10 Noroeste 17 Noroeste 0 -- -- 71
2020-11-07 14:00:00 18.8 13 Norte 21 Noroeste 0 -- -- 76
2020-11-07 13:00:00 18.8 3 Norte 10 Norte 0 -- -- 76
2020-11-07 12:00:00 18.1 4 Norte 23 Sudoeste 0 -- -- 78
2020-11-07 11:00:00 18.5 8 Sudoeste 28 Sudoeste 0 -- -- 66
2020-11-07 10:00:00 18.3 18 Sur 36 Sur 0 -- -- 63
2020-11-07 09:00:00 17.6 12 Sur 35 Sur 0 -- -- 65
2020-11-07 08:00:00 17.8 18 Sur 37 Sur 0 -- -- 63
2020-11-07 07:00:00 18.1 20 Sur 48 Sur 0 -- -- 62
2020-11-07 06:00:00 18.8 27 Sur 48 Sur 0 -- -- 62
2020-11-07 05:00:00 19.3 17 Sur 41 Sur 0 -- -- 64
2020-11-07 04:00:00 19.9 22 Sur 36 Sur 0 -- -- 60
2020-11-07 03:00:00 19.9 19 Sur 40 Sur 0 -- -- 58
2020-11-07 02:00:00 18.5 20 Sudeste 52 Sur 0 -- -- 64
2020-11-07 01:00:00 18.8 27 Sudeste 46 Sudeste 0 -- -- 63
2020-11-07 00:00:00 16.9 21 Sudeste 38 Sudoeste 0 -- -- 68
2020-11-06 23:00:00 19.1 36 Sudoeste 89 Sur 0 -- -- 59
2020-11-06 22:00:00 20.5 30 Sur 44 Sur 0 -- -- 61
2020-11-06 21:00:00 20.1 23 Sur 41 Sudoeste 0 -- -- 64
2020-11-06 20:00:00 19.7 21 Sur 30 Sur 0 -- -- 65
2020-11-06 19:00:00 19.5 17 Sur 30 Sur 0 -- -- 66
2020-11-06 18:00:00 20.1 19 Sur 34 Sur 0 -- -- 62
2020-11-06 17:00:00 20.7 18 Sur 28 Sur 0 -- -- 60
2020-11-06 16:00:00 21.4 19 Sur 50 Sur 0 -- -- 58
2020-11-06 15:00:00 22 36 Sur 60 Sur 0 -- -- 54
2020-11-06 14:00:00 23.1 31 Sur 51 Sur 0 -- -- 53
2020-11-06 13:00:00 20.9 26 Sur 42 Sur 0 -- -- 59
2020-11-06 12:00:00 19.9 32 Sur 57 Sur 0 -- -- 60
2020-11-06 11:00:00 18.8 28 Sudoeste 43 Sudoeste 0 -- -- 64
2020-11-06 10:00:00 19 22 Sur 41 Sur 0 -- -- 63
2020-11-06 09:00:00 17.7 23 Sudoeste 46 Sudoeste 0 -- -- 66
2020-11-06 08:00:00 17.1 34 Sudoeste 49 Sudoeste 0 -- -- 67
2020-11-06 07:00:00 16.8 26 Sur 43 Sur 0 -- -- 69
2020-11-06 06:00:00 16.1 14 Sudoeste 30 Sur 0 -- -- 71
2020-11-06 05:00:00 15.9 9 Sur 28 Sur 0 -- -- 71
2020-11-06 04:00:00 16.6 16 Sur 37 Sur 0 -- -- 68
2020-11-06 03:00:00 16.8 19 Sudeste 47 Sur 0 -- -- 67
2020-11-06 02:00:00 16 13 Sudeste 31 Sudeste 0 -- -- 72
2020-11-06 01:00:00 15.1 10 Sur 19 Sur 0 -- -- 76
2020-11-06 00:00:00 14.8 8 Sudeste 22 Este 0 -- -- 77
2020-11-05 23:00:00 12.8 13 Sudeste 26 Sudeste 0 -- -- 84
2020-11-05 22:00:00 12.6 13 Sudeste 18 Sudeste 0 -- -- 84
2020-11-05 21:00:00 12.2 11 Sudeste 16 Sudeste 0 -- -- 87
2020-11-05 20:00:00 12.5 5 Sur 15 Este 0 -- -- 86
2020-11-05 19:00:00 12.8 5 Este 13 Este 0 -- -- 84
2020-11-05 18:00:00 12.8 5 Este 22 Este 0 -- -- 83
2020-11-05 17:00:00 13.7 13 Este 28 Sudeste 0 -- -- 79
2020-11-05 16:00:00 14.7 19 Este 33 Este 0 -- -- 74
2020-11-05 15:00:00 15.2 23 Este 31 Este 0 -- -- 69
2020-11-05 14:00:00 15.5 17 Este 24 Este 0 -- -- 66
2020-11-05 13:00:00 14.7 14 Este 19 Este 0 -- -- 67
2020-11-05 12:00:00 13.5 6 Sudeste 13 Sudeste 0 -- -- 69
2020-11-05 11:00:00 11.9 8 Sudeste 11 Sudeste 0 -- -- 74
2020-11-05 10:00:00 9 2 Sur 15 Sur 0 -- -- 90
2020-11-05 09:00:00 7.9 10 Sur 14 Sudeste 0 -- -- 90
2020-11-05 08:00:00 7.1 6 Sur 14 Sur 0 -- -- 91
2020-11-05 07:00:00 7.8 5 Este 12 Sudeste 0 -- -- 88
2020-11-05 06:00:00 7.8 8 Sudeste 10 Sudeste 0 -- -- 90
2020-11-05 05:00:00 8.3 8 Sudeste 10 Sudeste 0 -- -- 86
2020-11-05 04:00:00 9.4 8 Sudoeste 16 Este 0 -- -- 81
2020-11-05 03:00:00 10.1 13 Sudeste 20 Este 0 -- -- 76
2020-11-05 02:00:00 10.1 15 Este 21 Este 0 -- -- 76
2020-11-05 01:00:00 10.4 12 Este 18 Este 0 -- -- 74
2020-11-05 00:00:00 10.6 11 Este 17 Este 0 -- -- 75